Terminal Aerodrome Forecast
Issued by NWS

Home | Current Version | Previous Version | Graphics & Text | Print | Product List | Glossary On
Versions: 1 2 3 4 5 6 7 8 9 10 11 12 13 14 15 16 17
000
FTUS43 KICT 242338
TAFRSL
TAF
KRSL 242338Z 2500/2524 30020G27KT P6SM VCSH SCT050 BKN100
     FM250600 32025G32KT P6SM BKN100 BKN200
     FM251500 32028G36KT P6SM SCT050 BKN120
     FM252300 32008KT P6SM SCT250=

USA.gov is the U.S. government's official web portal to all federal, state and local government web resources and services.